Disclaimer

Please do not use the information listed here in-flight or in-navigation, as they are not provided to us by the airports but are provided by volunteers, so they might be outdated.

Search


Regions


Airport information page

Radio informations:
Brisbane Center - 122.1 MHz
Common traffic adv. frequency (CTAF) - 126.7 MHz

Airport informations:
Latitude: 23° 26' 03.00" S
Longitude: 144° 16' 49.00" E
Elevation: 627 feet - 191 meters
Operating hours: N/A
Operating agency: Civil government, landing fees and diplomatic clearance may be required
Timezone: UTC+10
Fuel: Jet A1, without icing nhibitor.

100/130 MIL Spec, low lead, aviation gasoline (BLUE)

Runway information:
04/22 - 6352 x 98 feet< - >1936 x 30 meters
09/27 - 2953 x 59 feet< - >900 x 18 meters

Recent METARs:
YLRE 181500Z AUTO 10009KT 9999 // ////// 29/13 Q1006
YLRE 181500Z AUTO 10009KT 9999 // ////// 29/13 Q1006
YLRE 181500Z AUTO 10009KT 9999 // ////// 29/13 Q1006

Airport on the map: